Time;durP1;ratioP1;P1;durP2;ratioP2;P2;SDS_P1;SDS_P2;PMS_P1;PMS_P2;Temp;Humidity;BMP_temperature;BMP_pressure;BME280_temperature;BME280_humidity;BME280_pressure;Samples;Min_cycle;Max_cycle;Signal;HPM_P1;HPM_P2
2022/06/07 00:01:26;;;;;;;;;1.50;1.50;;;;;;;;4985404;28;8787;-81
2022/06/07 00:03:54;;;;;;;;;3.00;1.50;;;;;;;;4991440;28;8868;-81
2022/06/07 00:06:21;;;;;;;;;3.50;2.00;;;;;;;;4987683;28;8871;-81
2022/06/07 00:08:51;;;;;;;;;1.00;1.00;;;;;;;;4985601;28;8850;-83
2022/06/07 00:11:20;;;;;;;;;3.25;2.00;;;;;;;;4988245;28;8870;-82
2022/06/07 00:13:47;;;;;;;;;3.50;2.00;;;;;;;;4979803;28;8893;-82
2022/06/07 00:16:16;;;;;;;;;2.00;2.00;;;;;;;;4984158;28;8924;-81
2022/06/07 00:18:44;;;;;;;;;2.50;1.75;;;;;;;;4989468;28;8888;-81
2022/06/07 00:21:11;;;;;;;;;2.50;2.50;;;;;;;;4989296;28;8879;-82
2022/06/07 00:23:39;;;;;;;;;1.00;0.25;;;;;;;;4972543;28;8887;-82
2022/06/07 00:26:06;;;;;;;;;2.00;2.00;;;;;;;;4988803;28;8868;-82
2022/06/07 00:28:35;;;;;;;;;4.00;2.00;;;;;;;;4968728;28;8894;-82
2022/06/07 00:31:03;;;;;;;;;1.00;1.00;;;;;;;;4987085;28;9838;-82
2022/06/07 00:33:31;;;;;;;;;2.00;2.00;;;;;;;;4995017;28;8876;-82
2022/06/07 00:35:58;;;;;;;;;2.25;1.00;;;;;;;;4985436;28;8863;-82
2022/06/07 00:38:25;;;;;;;;;1.00;1.00;;;;;;;;4985589;28;8905;-82
2022/06/07 00:40:52;;;;;;;;;2.00;2.00;;;;;;;;4988796;28;8866;-82
2022/06/07 00:43:24;;;;;;;;;2.00;2.00;;;;;;;;4982158;28;8897;-82
2022/06/07 00:45:53;;;;;;;;;1.00;1.00;;;;;;;;4989419;28;8878;-82
2022/06/07 00:48:21;;;;;;;;;2.00;2.00;;;;;;;;4969757;28;8969;-82
2022/06/07 00:50:52;;;;;;;;;2.00;2.00;;;;;;;;4987042;28;8896;-81
2022/06/07 00:53:25;;;;;;;;;2.75;2.75;;;;;;;;4994898;28;8856;-82
2022/06/07 00:55:53;;;;;;;;;2.50;2.50;;;;;;;;4993002;28;8864;-82
2022/06/07 00:58:21;;;;;;;;;1.00;1.00;;;;;;;;4989227;28;8872;-81
2022/06/07 01:00:48;;;;;;;;;3.00;1.50;;;;;;;;4966003;28;8789;-83
2022/06/07 01:03:20;;;;;;;;;1.75;1.75;;;;;;;;4989343;28;8924;-82
2022/06/07 01:05:47;;;;;;;;;1.00;1.00;;;;;;;;4992626;28;8849;-81
2022/06/07 01:11:01;;;;;;;;;2.00;2.00;;;;;;;;4989749;28;8848;-81
2022/06/07 01:13:32;;;;;;;;;1.00;1.00;;;;;;;;4994872;28;8928;-82
2022/06/07 01:16:01;;;;;;;;;0.00;0.00;;;;;;;;4980587;28;8867;-83
2022/06/07 01:18:31;;;;;;;;;1.00;1.00;;;;;;;;4992783;28;8898;-81
2022/06/07 01:21:31;;;;;;;;;2.00;2.00;;;;;;;;4985717;28;8868;-82
2022/06/07 01:23:59;;;;;;;;;2.75;1.75;;;;;;;;4984307;28;9621;-81
2022/06/07 01:26:26;;;;;;;;;3.00;3.00;;;;;;;;4989468;28;8872;-82
2022/06/07 01:28:53;;;;;;;;;1.75;1.75;;;;;;;;4990104;28;8867;-82
2022/06/07 01:31:20;;;;;;;;;2.75;2.75;;;;;;;;4984577;28;8831;-83
2022/06/07 01:33:48;;;;;;;;;1.00;1.00;;;;;;;;4994735;28;9009;-83
2022/06/07 01:36:18;;;;;;;;;4.00;2.25;;;;;;;;4968857;28;8893;-82
2022/06/07 01:41:53;;;;;;;;;2.00;2.00;;;;;;;;4992039;28;8984;-83
2022/06/07 01:44:21;;;;;;;;;1.50;1.50;;;;;;;;4987798;28;8863;-83
2022/06/07 01:46:49;;;;;;;;;1.50;1.50;;;;;;;;4970908;28;8871;-83
2022/06/07 01:49:17;;;;;;;;;2.50;2.50;;;;;;;;4982511;28;8878;-83
2022/06/07 01:51:46;;;;;;;;;1.25;1.25;;;;;;;;4968373;28;8880;-83
2022/06/07 01:54:14;;;;;;;;;1.50;1.50;;;;;;;;4994772;28;10631;-83
2022/06/07 01:56:42;;;;;;;;;2.75;2.75;;;;;;;;4987899;28;9635;-83
2022/06/07 01:59:10;;;;;;;;;3.25;1.25;;;;;;;;4990786;28;8893;-83
2022/06/07 02:01:37;;;;;;;;;2.00;2.00;;;;;;;;4990243;28;8839;-82
2022/06/07 02:04:05;;;;;;;;;4.00;2.00;;;;;;;;4991207;28;8983;-82
2022/06/07 02:06:33;;;;;;;;;2.25;2.25;;;;;;;;4990475;28;8892;-81
2022/06/07 02:09:02;;;;;;;;;2.25;2.25;;;;;;;;4986774;28;8936;-82
2022/06/07 02:11:30;;;;;;;;;1.00;1.00;;;;;;;;4994051;28;8844;-80
2022/06/07 02:13:57;;;;;;;;;1.25;1.25;;;;;;;;4986506;28;8871;-82
2022/06/07 02:16:24;;;;;;;;;4.00;2.75;;;;;;;;4966836;28;8860;-82
2022/06/07 02:18:52;;;;;;;;;2.00;2.00;;;;;;;;4985311;28;8868;-81
2022/06/07 02:21:21;;;;;;;;;1.25;1.25;;;;;;;;4987398;28;8926;-82
2022/06/07 02:23:49;;;;;;;;;2.50;2.50;;;;;;;;4992531;28;8876;-83
2022/06/07 02:26:24;;;;;;;;;1.75;1.75;;;;;;;;4985945;28;8882;-83
2022/06/07 02:28:55;;;;;;;;;1.75;1.75;;;;;;;;4986866;28;9617;-82
2022/06/07 02:31:24;;;;;;;;;2.25;2.25;;;;;;;;4985907;28;8823;-82
2022/06/07 02:33:54;;;;;;;;;2.00;2.00;;;;;;;;4991791;28;8916;-80
2022/06/07 02:36:22;;;;;;;;;2.75;2.75;;;;;;;;4982207;28;8900;-82
2022/06/07 02:38:50;;;;;;;;;1.50;1.50;;;;;;;;4990857;28;8858;-81
2022/06/07 02:41:21;;;;;;;;;1.00;1.00;;;;;;;;4971589;28;8891;-81
2022/06/07 02:43:49;;;;;;;;;2.50;2.50;;;;;;;;4983343;28;8855;-83
2022/06/07 02:46:16;;;;;;;;;3.25;2.00;;;;;;;;4982559;28;8896;-81
2022/06/07 02:48:43;;;;;;;;;1.50;1.50;;;;;;;;4982712;28;8869;-81
2022/06/07 02:51:11;;;;;;;;;2.50;1.00;;;;;;;;4985904;28;8886;-81
2022/06/07 02:53:38;;;;;;;;;1.25;1.25;;;;;;;;4967537;28;8856;-82
2022/06/07 02:56:06;;;;;;;;;2.50;2.50;;;;;;;;4964690;28;8922;-83
2022/06/07 03:02:07;;;;;;;;;2.00;2.00;;;;;;;;4944874;28;8844;-82
2022/06/07 03:04:35;;;;;;;;;1.25;1.25;;;;;;;;4988720;28;8868;-82
2022/06/07 03:07:03;;;;;;;;;1.75;1.75;;;;;;;;4986811;28;8984;-82
2022/06/07 03:09:30;;;;;;;;;2.00;2.00;;;;;;;;4988167;28;9706;-81
2022/06/07 03:11:57;;;;;;;;;1.00;1.00;;;;;;;;4981073;28;8888;-81
2022/06/07 03:14:25;;;;;;;;;1.00;1.00;;;;;;;;4985281;28;8878;-82
2022/06/07 03:16:52;;;;;;;;;1.75;1.75;;;;;;;;4989513;28;8872;-82
2022/06/07 03:19:22;;;;;;;;;2.00;2.00;;;;;;;;4981353;28;8891;-82
2022/06/07 03:21:49;;;;;;;;;1.50;1.50;;;;;;;;4993526;28;8852;-81
2022/06/07 03:24:17;;;;;;;;;1.00;1.00;;;;;;;;4987053;28;8989;-82
2022/06/07 03:26:44;;;;;;;;;2.00;1.50;;;;;;;;4972794;28;8845;-81
2022/06/07 03:29:11;;;;;;;;;3.00;2.00;;;;;;;;4984033;28;8904;-82
2022/06/07 03:31:39;;;;;;;;;2.00;2.00;;;;;;;;4995286;28;8813;-82
2022/06/07 03:34:07;;;;;;;;;2.00;2.00;;;;;;;;4982742;28;8853;-82
2022/06/07 03:39:32;;;;;;;;;1.50;1.00;;;;;;;;4963302;28;8861;-82
2022/06/07 03:41:59;;;;;;;;;2.00;2.00;;;;;;;;4983975;28;9659;-82
2022/06/07 03:44:27;;;;;;;;;2.50;1.00;;;;;;;;4994147;28;8890;-81
2022/06/07 03:46:55;;;;;;;;;1.00;1.00;;;;;;;;4984363;28;8896;-81
2022/06/07 03:49:22;;;;;;;;;1.00;1.00;;;;;;;;4981666;28;9649;-82
2022/06/07 03:51:51;;;;;;;;;0.00;0.00;;;;;;;;4988872;28;8885;-84
2022/06/07 03:54:18;;;;;;;;;1.25;1.25;;;;;;;;4996344;28;8889;-85
2022/06/07 03:56:47;;;;;;;;;2.25;1.00;;;;;;;;4966168;28;8886;-84
2022/06/07 03:59:14;;;;;;;;;1.25;1.25;;;;;;;;4983261;28;8875;-83
2022/06/07 04:01:42;;;;;;;;;3.00;2.00;;;;;;;;4991783;28;8835;-83
2022/06/07 04:04:11;;;;;;;;;2.00;2.00;;;;;;;;4987889;28;8858;-82
2022/06/07 04:06:41;;;;;;;;;1.25;1.25;;;;;;;;4986128;28;8873;-80
2022/06/07 04:09:10;;;;;;;;;2.00;2.00;;;;;;;;4989931;28;8860;-82
2022/06/07 04:11:37;;;;;;;;;1.75;1.75;;;;;;;;4982849;28;9570;-81
2022/06/07 04:14:07;;;;;;;;;2.00;2.00;;;;;;;;4995880;28;9746;-83
2022/06/07 04:16:35;;;;;;;;;2.00;2.00;;;;;;;;4984249;28;8979;-82
2022/06/07 04:19:02;;;;;;;;;1.25;1.25;;;;;;;;4986675;28;8973;-82
2022/06/07 04:21:29;;;;;;;;;1.75;1.75;;;;;;;;4985819;28;8868;-82
2022/06/07 04:23:57;;;;;;;;;1.00;1.00;;;;;;;;4984743;28;8868;-83
2022/06/07 04:26:27;;;;;;;;;4.75;1.50;;;;;;;;4982403;28;8887;-82
2022/06/07 04:28:54;;;;;;;;;1.25;1.25;;;;;;;;4980100;28;8930;-81
2022/06/07 04:31:23;;;;;;;;;2.00;2.00;;;;;;;;4982157;28;9608;-83
2022/06/07 04:33:51;;;;;;;;;1.00;1.00;;;;;;;;4981566;28;8864;-80
2022/06/07 04:36:20;;;;;;;;;1.00;1.00;;;;;;;;4965996;28;9583;-81
2022/06/07 04:38:47;;;;;;;;;1.00;1.00;;;;;;;;4985188;28;8908;-78
2022/06/07 04:41:16;;;;;;;;;2.00;2.00;;;;;;;;4986958;28;8856;-81
2022/06/07 04:43:46;;;;;;;;;2.00;2.00;;;;;;;;4985404;28;9631;-81
2022/06/07 04:46:15;;;;;;;;;2.25;2.25;;;;;;;;4983300;28;8874;-81
2022/06/07 04:48:43;;;;;;;;;2.00;2.00;;;;;;;;4987802;28;8868;-77
2022/06/07 04:51:13;;;;;;;;;3.00;3.00;;;;;;;;4990429;28;8855;-76
2022/06/07 04:53:41;;;;;;;;;3.00;2.00;;;;;;;;4993332;28;8871;-77
2022/06/07 04:56:09;;;;;;;;;2.00;2.00;;;;;;;;4986439;28;8874;-77
2022/06/07 04:58:36;;;;;;;;;3.00;3.00;;;;;;;;4982558;28;8882;-77
2022/06/07 05:01:10;;;;;;;;;2.75;2.75;;;;;;;;4981992;28;8795;-78
2022/06/07 05:03:37;;;;;;;;;4.25;3.50;;;;;;;;4982172;28;8897;-77
2022/06/07 05:06:05;;;;;;;;;3.50;3.50;;;;;;;;4968840;28;8880;-77
2022/06/07 05:08:33;;;;;;;;;3.00;3.00;;;;;;;;4985105;28;8901;-79
2022/06/07 05:11:00;;;;;;;;;3.75;3.75;;;;;;;;4982180;28;8898;-75
2022/06/07 05:13:28;;;;;;;;;3.25;3.25;;;;;;;;4983784;28;8902;-76
2022/06/07 05:15:56;;;;;;;;;2.00;2.00;;;;;;;;4979666;28;8869;-71
2022/06/07 05:18:25;;;;;;;;;4.25;3.00;;;;;;;;4983986;28;8847;-70
2022/06/07 05:20:53;;;;;;;;;2.75;2.75;;;;;;;;4983058;28;8874;-72
2022/06/07 05:23:20;;;;;;;;;2.75;2.75;;;;;;;;4983583;28;8964;-71
2022/06/07 05:25:55;;;;;;;;;2.50;2.50;;;;;;;;4984256;28;8871;-71
2022/06/07 05:28:23;;;;;;;;;3.75;3.50;;;;;;;;4981698;28;9012;-69
2022/06/07 05:30:50;;;;;;;;;3.00;3.00;;;;;;;;4984237;28;8914;-69
2022/06/07 05:33:17;;;;;;;;;2.00;2.00;;;;;;;;4989806;28;8882;-69
2022/06/07 05:35:46;;;;;;;;;4.75;3.50;;;;;;;;4988172;28;8863;-69
2022/06/07 05:38:14;;;;;;;;;4.00;4.00;;;;;;;;4987302;28;8937;-70
2022/06/07 05:40:41;;;;;;;;;4.25;4.25;;;;;;;;4981917;28;9612;-70
2022/06/07 05:43:10;;;;;;;;;4.75;4.75;;;;;;;;4983528;28;8852;-69
2022/06/07 05:45:38;;;;;;;;;3.00;3.00;;;;;;;;4988633;28;9072;-70
2022/06/07 05:48:05;;;;;;;;;3.00;3.00;;;;;;;;4980057;28;8875;-70
2022/06/07 05:50:33;;;;;;;;;4.00;4.00;;;;;;;;4983334;28;9686;-71
2022/06/07 05:53:01;;;;;;;;;6.50;4.75;;;;;;;;4986178;28;8872;-71
2022/06/07 05:55:28;;;;;;;;;4.50;4.50;;;;;;;;4989425;28;8988;-71
2022/06/07 05:57:56;;;;;;;;;5.00;4.00;;;;;;;;4973072;28;8863;-72
2022/06/07 06:00:24;;;;;;;;;4.50;3.50;;;;;;;;4987595;28;8824;-70
2022/06/07 06:02:52;;;;;;;;;2.75;2.75;;;;;;;;4997419;28;8884;-71
2022/06/07 06:05:19;;;;;;;;;6.75;5.25;;;;;;;;4987759;28;8890;-70
2022/06/07 06:10:29;;;;;;;;;5.00;5.00;;;;;;;;4984482;28;8871;-70
2022/06/07 06:12:57;;;;;;;;;5.75;5.75;;;;;;;;4987545;28;8888;-70
2022/06/07 06:15:24;;;;;;;;;12.50;12.50;;;;;;;;4987530;28;8857;-70
2022/06/07 06:17:52;;;;;;;;;7.00;5.50;;;;;;;;4989731;28;8875;-71
2022/06/07 06:20:20;;;;;;;;;6.00;4.25;;;;;;;;4988579;28;8874;-72
2022/06/07 06:22:47;;;;;;;;;4.75;4.75;;;;;;;;4978452;28;8878;-71
2022/06/07 06:25:15;;;;;;;;;5.25;5.25;;;;;;;;4997413;28;8856;-72
2022/06/07 06:27:44;;;;;;;;;6.50;6.50;;;;;;;;4986465;28;8864;-71
2022/06/07 06:30:13;;;;;;;;;4.50;4.50;;;;;;;;4989378;28;9009;-72
2022/06/07 06:32:41;;;;;;;;;6.00;6.00;;;;;;;;4990045;28;8848;-69
2022/06/07 06:35:10;;;;;;;;;6.00;6.00;;;;;;;;4990748;28;8888;-71
2022/06/07 06:37:37;;;;;;;;;5.25;5.25;;;;;;;;4990371;28;8874;-72
2022/06/07 06:40:06;;;;;;;;;4.25;4.25;;;;;;;;4986835;28;8864;-72
2022/06/07 06:42:33;;;;;;;;;6.50;6.50;;;;;;;;4994837;28;8929;-71
2022/06/07 06:45:02;;;;;;;;;4.75;4.75;;;;;;;;4987708;28;8871;-71
2022/06/07 06:47:30;;;;;;;;;4.00;4.00;;;;;;;;4992088;28;8882;-72
2022/06/07 06:49:57;;;;;;;;;4.25;4.25;;;;;;;;4982739;28;9644;-70
2022/06/07 06:52:24;;;;;;;;;5.25;5.25;;;;;;;;4960779;28;8869;-72
2022/06/07 06:54:52;;;;;;;;;4.75;4.00;;;;;;;;4963984;28;8862;-71
2022/06/07 06:57:19;;;;;;;;;6.00;6.00;;;;;;;;4988313;28;8884;-71
2022/06/07 06:59:47;;;;;;;;;6.75;5.50;;;;;;;;4993934;28;8869;-71
2022/06/07 07:02:16;;;;;;;;;7.00;4.50;;;;;;;;4983503;28;8847;-72
2022/06/07 07:04:43;;;;;;;;;4.00;4.00;;;;;;;;4983223;28;8864;-71
2022/06/07 07:07:10;;;;;;;;;5.25;5.25;;;;;;;;4981139;28;8956;-71
2022/06/07 07:09:38;;;;;;;;;5.25;5.25;;;;;;;;4988203;28;9011;-71
2022/06/07 07:12:06;;;;;;;;;5.00;5.00;;;;;;;;4980296;28;8858;-71
2022/06/07 07:14:33;;;;;;;;;6.00;6.00;;;;;;;;4984202;28;8981;-70
2022/06/07 07:17:00;;;;;;;;;5.75;4.75;;;;;;;;4988804;28;8872;-71
2022/06/07 07:19:29;;;;;;;;;4.75;4.50;;;;;;;;4981899;28;9022;-71
2022/06/07 07:21:56;;;;;;;;;2.25;2.00;;;;;;;;4969381;28;8884;-70
2022/06/07 07:24:25;;;;;;;;;4.75;4.75;;;;;;;;4995634;28;8856;-71
2022/06/07 07:26:53;;;;;;;;;3.50;2.25;;;;;;;;4982243;28;8867;-71
2022/06/07 07:29:22;;;;;;;;;2.00;2.00;;;;;;;;4986412;28;8878;-71
2022/06/07 07:31:49;;;;;;;;;2.00;2.00;;;;;;;;4986652;28;8799;-71
2022/06/07 07:34:18;;;;;;;;;2.75;2.75;;;;;;;;4987300;28;8862;-71
2022/06/07 07:36:48;;;;;;;;;1.00;1.00;;;;;;;;4986901;28;8874;-71
2022/06/07 07:39:16;;;;;;;;;1.00;1.00;;;;;;;;4981377;28;8862;-72
2022/06/07 07:41:45;;;;;;;;;1.00;1.00;;;;;;;;4986445;28;8867;-72
2022/06/07 07:44:14;;;;;;;;;0.50;0.25;;;;;;;;4981277;28;9684;-71
2022/06/07 07:46:43;;;;;;;;;0.00;0.00;;;;;;;;4985435;28;8854;-71
2022/06/07 07:49:11;;;;;;;;;0.50;0.50;;;;;;;;4985009;28;8863;-71
2022/06/07 07:51:41;;;;;;;;;0.00;0.00;;;;;;;;4989253;28;8859;-73
2022/06/07 07:54:12;;;;;;;;;0.00;0.00;;;;;;;;4993033;28;8875;-72
2022/06/07 07:56:40;;;;;;;;;0.00;0.00;;;;;;;;4985394;28;8902;-72
2022/06/07 07:59:09;;;;;;;;;1.00;1.00;;;;;;;;4969360;28;8882;-72
2022/06/07 08:01:37;;;;;;;;;0.00;0.00;;;;;;;;4983047;28;8857;-72
2022/06/07 08:04:05;;;;;;;;;1.50;1.50;;;;;;;;4986741;28;8861;-72
2022/06/07 08:06:34;;;;;;;;;1.00;1.00;;;;;;;;4989202;28;9637;-72
2022/06/07 08:09:04;;;;;;;;;1.00;1.00;;;;;;;;4991979;28;8883;-73
2022/06/07 08:11:35;;;;;;;;;0.00;0.00;;;;;;;;4978164;28;8878;-72
2022/06/07 08:14:03;;;;;;;;;0.75;0.75;;;;;;;;4985556;28;8885;-72
2022/06/07 08:16:31;;;;;;;;;0.25;0.25;;;;;;;;4995888;28;8844;-73
2022/06/07 08:18:58;;;;;;;;;0.50;0.50;;;;;;;;4988299;28;8890;-72
2022/06/07 08:21:27;;;;;;;;;0.00;0.00;;;;;;;;4987069;28;8842;-73
2022/06/07 08:23:56;;;;;;;;;0.00;0.00;;;;;;;;4980401;28;9913;-72
2022/06/07 08:26:26;;;;;;;;;0.00;0.00;;;;;;;;4990999;28;8917;-72
2022/06/07 08:28:55;;;;;;;;;0.00;0.00;;;;;;;;4967314;28;9719;-72
2022/06/07 08:31:24;;;;;;;;;0.00;0.00;;;;;;;;4983625;28;8837;-71
2022/06/07 08:39:22;;;;;;;;;0.00;0.00;;;;;;;;4986014;28;8852;-72
2022/06/07 08:41:52;;;;;;;;;0.00;0.00;;;;;;;;4990320;28;8852;-72
2022/06/07 08:44:26;;;;;;;;;1.00;1.00;;;;;;;;4991963;28;8883;-72
2022/06/07 08:46:56;;;;;;;;;0.00;0.00;;;;;;;;4983973;28;8890;-73
2022/06/07 08:49:23;;;;;;;;;2.25;0.00;;;;;;;;4976842;28;9023;-71
2022/06/07 08:51:53;;;;;;;;;0.00;0.00;;;;;;;;4985748;28;8908;-71
2022/06/07 08:54:26;;;;;;;;;0.00;0.00;;;;;;;;4989159;28;9684;-73
2022/06/07 08:56:54;;;;;;;;;1.00;0.00;;;;;;;;4989649;28;8887;-72
2022/06/07 08:59:23;;;;;;;;;0.00;0.00;;;;;;;;4987368;28;8859;-73
2022/06/07 09:02:02;;;;;;;;;0.25;0.25;;;;;;;;4985402;28;8968;-73
2022/06/07 09:04:31;;;;;;;;;0.00;0.00;;;;;;;;4969720;28;8872;-73
2022/06/07 09:07:03;;;;;;;;;0.25;0.25;;;;;;;;4979075;28;8871;-73
2022/06/07 09:12:20;;;;;;;;;0.75;0.75;;;;;;;;4988477;28;8834;-73
2022/06/07 09:14:53;;;;;;;;;2.00;0.00;;;;;;;;4987445;28;8878;-73
2022/06/07 09:17:22;;;;;;;;;1.00;1.00;;;;;;;;4986545;28;8855;-73
2022/06/07 09:19:51;;;;;;;;;1.00;1.00;;;;;;;;4989103;28;8957;-74
2022/06/07 09:22:25;;;;;;;;;0.75;0.75;;;;;;;;4982996;28;8835;-74
2022/06/07 09:24:56;;;;;;;;;1.00;1.00;;;;;;;;4980705;28;9770;-74
2022/06/07 09:27:26;;;;;;;;;1.00;1.00;;;;;;;;4988468;28;8981;-74
2022/06/07 09:29:56;;;;;;;;;1.00;1.00;;;;;;;;4979940;28;8906;-73
2022/06/07 09:32:26;;;;;;;;;1.00;1.00;;;;;;;;4992763;28;8929;-73
2022/06/07 09:34:58;;;;;;;;;1.00;1.00;;;;;;;;4967659;28;8898;-73
2022/06/07 09:37:32;;;;;;;;;1.00;1.00;;;;;;;;4986239;28;8905;-74
2022/06/07 09:40:21;;;;;;;;;1.00;0.25;;;;;;;;4972060;28;8894;-73
2022/06/07 09:42:54;;;;;;;;;0.00;0.00;;;;;;;;4997082;28;8876;-73
2022/06/07 09:45:28;;;;;;;;;1.50;1.25;;;;;;;;4951138;28;8920;-73
2022/06/07 09:47:55;;;;;;;;;1.00;1.00;;;;;;;;4987155;28;8887;-73
2022/06/07 09:50:26;;;;;;;;;1.00;1.00;;;;;;;;4985561;28;8900;-73
2022/06/07 09:52:57;;;;;;;;;2.20;2.20;;;;;;;;4987310;28;8852;-74
2022/06/07 09:55:31;;;;;;;;;1.00;1.00;;;;;;;;4984467;28;8883;-75
2022/06/07 09:58:13;;;;;;;;;1.00;1.00;;;;;;;;4985224;28;8981;-71
2022/06/07 10:00:47;;;;;;;;;2.80;0.00;;;;;;;;4983959;28;8947;-72
2022/06/07 10:03:34;;;;;;;;;0.00;0.00;;;;;;;;4984760;28;8871;-72
2022/06/07 10:06:26;;;;;;;;;0.00;0.00;;;;;;;;4987243;28;8859;-71
2022/06/07 10:09:14;;;;;;;;;0.80;0.80;;;;;;;;4982855;28;8889;-73
2022/06/07 10:11:48;;;;;;;;;1.00;1.00;;;;;;;;4989332;28;8882;-73
2022/06/07 10:14:25;;;;;;;;;0.00;0.00;;;;;;;;4993014;28;8854;-72
2022/06/07 10:17:20;;;;;;;;;0.00;0.00;;;;;;;;4990573;28;8884;-73
2022/06/07 10:19:54;;;;;;;;;1.00;1.00;;;;;;;;4991640;28;8989;-72
2022/06/07 10:22:34;;;;;;;;;0.80;0.00;;;;;;;;4988168;28;8882;-73
2022/06/07 10:25:11;;;;;;;;;0.40;0.00;;;;;;;;4988367;28;8890;-72
2022/06/07 10:27:46;;;;;;;;;0.00;0.00;;;;;;;;4988538;28;8880;-72
2022/06/07 10:30:26;;;;;;;;;0.00;0.00;;;;;;;;4982795;28;8855;-72
2022/06/07 10:33:14;;;;;;;;;2.75;1.00;;;;;;;;4989093;28;8863;-72
2022/06/07 10:35:48;;;;;;;;;0.50;0.50;;;;;;;;4981068;28;8915;-73
2022/06/07 10:38:24;;;;;;;;;2.00;2.00;;;;;;;;4984987;28;8908;-73
2022/06/07 10:41:01;;;;;;;;;1.75;1.00;;;;;;;;4990515;28;8847;-73
2022/06/07 10:43:33;;;;;;;;;1.00;1.00;;;;;;;;4983898;28;8898;-73
2022/06/07 10:46:00;;;;;;;;;2.50;1.00;;;;;;;;4990455;28;8886;-73
2022/06/07 10:48:34;;;;;;;;;1.00;1.00;;;;;;;;4987343;28;8866;-73
2022/06/07 10:51:06;;;;;;;;;1.25;1.25;;;;;;;;4985917;28;9648;-73
2022/06/07 10:53:39;;;;;;;;;0.50;0.50;;;;;;;;4984429;28;8842;-74
2022/06/07 10:56:15;;;;;;;;;2.00;1.00;;;;;;;;4982182;28;8885;-73
2022/06/07 10:58:45;;;;;;;;;3.00;3.00;;;;;;;;4992719;28;8866;-73
2022/06/07 11:01:15;;;;;;;;;1.00;1.00;;;;;;;;4983878;28;8807;-73
2022/06/07 11:04:01;;;;;;;;;1.00;1.00;;;;;;;;4985006;28;8905;-73
2022/06/07 11:09:24;;;;;;;;;1.00;1.00;;;;;;;;4990060;28;8844;-73
2022/06/07 11:11:56;;;;;;;;;0.00;0.00;;;;;;;;4987557;28;8892;-74
2022/06/07 11:14:51;;;;;;;;;1.00;1.00;;;;;;;;4982090;28;8926;-73
2022/06/07 11:17:28;;;;;;;;;1.00;1.00;;;;;;;;4983581;28;8909;-74
2022/06/07 11:20:01;;;;;;;;;0.80;0.80;;;;;;;;4985900;28;8996;-73
2022/06/07 11:22:35;;;;;;;;;1.00;1.00;;;;;;;;4985320;28;8897;-74
2022/06/07 11:25:22;;;;;;;;;7.80;6.80;;;;;;;;4970103;28;8876;-74
2022/06/07 11:27:54;;;;;;;;;7.00;7.00;;;;;;;;4963200;28;8888;-74
2022/06/07 11:30:27;;;;;;;;;1.00;1.00;;;;;;;;4984645;28;8878;-73
2022/06/07 11:32:56;;;;;;;;;1.00;1.00;;;;;;;;4991048;28;8933;-73
2022/06/07 11:36:05;;;;;;;;;0.60;0.00;;;;;;;;4988422;28;8949;-73
2022/06/07 11:38:35;;;;;;;;;0.20;0.20;;;;;;;;4982658;28;8876;-73
2022/06/07 11:41:48;;;;;;;;;0.00;0.00;;;;;;;;4990348;28;9636;-73
2022/06/07 11:44:31;;;;;;;;;0.20;0.20;;;;;;;;4981334;28;8890;-72
2022/06/07 11:47:02;;;;;;;;;0.00;0.00;;;;;;;;4985163;28;9145;-74
2022/06/07 11:49:39;;;;;;;;;0.00;0.00;;;;;;;;4986477;28;8890;-73
2022/06/07 11:52:22;;;;;;;;;1.00;1.00;;;;;;;;4992220;28;8934;-73
2022/06/07 11:54:54;;;;;;;;;0.00;0.00;;;;;;;;4992732;28;8834;-73
2022/06/07 11:57:30;;;;;;;;;1.00;1.00;;;;;;;;4990580;28;8848;-73
2022/06/07 11:59:59;;;;;;;;;0.00;0.00;;;;;;;;4994197;28;8973;-72
2022/06/07 12:02:31;;;;;;;;;0.00;0.00;;;;;;;;4986275;28;8817;-73
2022/06/07 12:05:16;;;;;;;;;0.00;0.00;;;;;;;;4993707;28;8864;-73
2022/06/07 12:07:48;;;;;;;;;0.00;0.00;;;;;;;;4971198;28;8895;-73
2022/06/07 12:10:32;;;;;;;;;0.00;0.00;;;;;;;;4988292;28;8894;-73
2022/06/07 12:13:12;;;;;;;;;0.00;0.00;;;;;;;;4990195;28;9010;-74
2022/06/07 12:15:42;;;;;;;;;0.00;0.00;;;;;;;;4987394;28;8882;-73
2022/06/07 12:18:18;;;;;;;;;0.00;0.00;;;;;;;;4990874;28;8889;-74
2022/06/07 12:20:55;;;;;;;;;0.00;0.00;;;;;;;;4992019;28;8874;-72
2022/06/07 12:23:26;;;;;;;;;0.00;0.00;;;;;;;;4985398;28;8879;-72
2022/06/07 12:26:00;;;;;;;;;0.00;0.00;;;;;;;;4978230;28;8886;-72
2022/06/07 12:28:30;;;;;;;;;3.00;0.00;;;;;;;;4987374;28;9715;-72
2022/06/07 12:30:58;;;;;;;;;0.00;0.00;;;;;;;;4992133;28;8865;-73
2022/06/07 12:33:32;;;;;;;;;0.00;0.00;;;;;;;;4987647;28;8864;-72
2022/06/07 12:36:01;;;;;;;;;0.00;0.00;;;;;;;;4991753;28;9599;-73
2022/06/07 12:38:31;;;;;;;;;0.00;0.00;;;;;;;;4991798;28;8870;-73
2022/06/07 12:41:03;;;;;;;;;0.00;0.00;;;;;;;;4967696;28;8890;-72
2022/06/07 12:43:32;;;;;;;;;0.00;0.00;;;;;;;;4984835;28;8890;-74
2022/06/07 12:46:03;;;;;;;;;0.00;0.00;;;;;;;;4984396;28;8949;-74
2022/06/07 12:48:37;;;;;;;;;0.00;0.00;;;;;;;;4989267;28;9019;-74
2022/06/07 12:51:21;;;;;;;;;0.00;0.00;;;;;;;;4980482;28;8879;-73
2022/06/07 12:53:51;;;;;;;;;0.00;0.00;;;;;;;;4997406;28;8880;-73
2022/06/07 12:56:19;;;;;;;;;0.00;0.00;;;;;;;;4996853;28;9045;-72
2022/06/07 12:58:49;;;;;;;;;0.80;0.00;;;;;;;;4992886;28;8870;-73
2022/06/07 13:01:26;;;;;;;;;0.00;0.00;;;;;;;;4992215;28;9616;-74
2022/06/07 13:03:56;;;;;;;;;0.00;0.00;;;;;;;;4997191;28;8859;-74
2022/06/07 13:06:24;;;;;;;;;0.00;0.00;;;;;;;;4997105;28;8930;-74
2022/06/07 13:09:18;;;;;;;;;0.00;0.00;;;;;;;;4997232;28;8884;-75
2022/06/07 13:11:46;;;;;;;;;0.00;0.00;;;;;;;;4983671;28;8959;-74
2022/06/07 13:14:14;;;;;;;;;0.00;0.00;;;;;;;;4965505;28;8855;-74
2022/06/07 13:16:44;;;;;;;;;0.00;0.00;;;;;;;;4985337;28;8990;-74
2022/06/07 13:19:25;;;;;;;;;0.00;0.00;;;;;;;;4989756;28;9649;-76
2022/06/07 13:22:00;;;;;;;;;0.00;0.00;;;;;;;;4988783;28;8882;-77
2022/06/07 13:24:36;;;;;;;;;0.00;0.00;;;;;;;;4987012;28;8866;-75
2022/06/07 13:27:05;;;;;;;;;0.00;0.00;;;;;;;;4982862;28;8886;-76
2022/06/07 13:29:36;;;;;;;;;0.00;0.00;;;;;;;;4987926;28;9791;-72
2022/06/07 13:32:06;;;;;;;;;0.00;0.00;;;;;;;;4982525;28;9639;-74
2022/06/07 13:34:35;;;;;;;;;0.00;0.00;;;;;;;;4989405;28;8851;-74
2022/06/07 13:37:21;;;;;;;;;0.00;0.00;;;;;;;;4981793;28;8870;-75
2022/06/07 13:40:07;;;;;;;;;0.00;0.00;;;;;;;;4987920;28;8870;-76
2022/06/07 13:42:36;;;;;;;;;0.00;0.00;;;;;;;;4981253;28;9519;-79
2022/06/07 13:45:19;;;;;;;;;0.00;0.00;;;;;;;;4984633;28;8871;-75
2022/06/07 13:47:50;;;;;;;;;0.00;0.00;;;;;;;;4954894;28;9636;-76
2022/06/07 13:53:25;;;;;;;;;0.00;0.00;;;;;;;;4979499;28;8832;-74
2022/06/07 13:55:57;;;;;;;;;0.00;0.00;;;;;;;;4974525;28;8862;-74
2022/06/07 13:58:27;;;;;;;;;0.00;0.00;;;;;;;;4988157;28;8895;-75
2022/06/07 14:01:00;;;;;;;;;0.00;0.00;;;;;;;;4986318;28;8807;-76
2022/06/07 14:03:35;;;;;;;;;0.00;0.00;;;;;;;;4985306;28;9005;-75
2022/06/07 14:06:03;;;;;;;;;0.00;0.00;;;;;;;;4991853;28;8888;-77
2022/06/07 14:08:31;;;;;;;;;0.00;0.00;;;;;;;;4987198;28;8856;-74
2022/06/07 14:11:00;;;;;;;;;0.00;0.00;;;;;;;;4990697;28;8903;-74
2022/06/07 14:13:27;;;;;;;;;0.00;0.00;;;;;;;;4985400;28;8867;-74
2022/06/07 14:15:55;;;;;;;;;0.00;0.00;;;;;;;;4986038;28;8863;-74
2022/06/07 14:18:23;;;;;;;;;0.00;0.00;;;;;;;;4988256;28;8971;-74
2022/06/07 14:20:51;;;;;;;;;0.00;0.00;;;;;;;;4984545;28;8869;-76
2022/06/07 14:23:19;;;;;;;;;0.00;0.00;;;;;;;;4989435;28;8847;-74
2022/06/07 14:25:47;;;;;;;;;0.00;0.00;;;;;;;;4986628;28;8836;-74
2022/06/07 14:28:23;;;;;;;;;0.00;0.00;;;;;;;;4986620;28;8867;-73
2022/06/07 14:30:52;;;;;;;;;0.00;0.00;;;;;;;;4967306;28;8820;-74
2022/06/07 14:33:23;;;;;;;;;0.00;0.00;;;;;;;;4969641;28;8922;-74
2022/06/07 14:35:51;;;;;;;;;0.00;0.00;;;;;;;;4966125;28;9611;-73
2022/06/07 14:38:25;;;;;;;;;0.00;0.00;;;;;;;;4967861;28;8879;-73
2022/06/07 14:40:52;;;;;;;;;0.00;0.00;;;;;;;;4968439;28;8871;-74
2022/06/07 14:43:23;;;;;;;;;0.00;0.00;;;;;;;;4967470;28;8993;-72
2022/06/07 14:45:56;;;;;;;;;0.00;0.00;;;;;;;;4970447;28;8893;-74
2022/06/07 14:48:31;;;;;;;;;0.00;0.00;;;;;;;;4961886;28;8953;-74
2022/06/07 14:50:59;;;;;;;;;0.00;0.00;;;;;;;;4962632;28;8879;-74
2022/06/07 14:53:26;;;;;;;;;0.00;0.00;;;;;;;;4963614;28;8966;-75
2022/06/07 14:55:53;;;;;;;;;0.00;0.00;;;;;;;;4965842;28;8874;-74
2022/06/07 14:58:22;;;;;;;;;0.00;0.00;;;;;;;;4965141;28;8876;-75
2022/06/07 15:00:51;;;;;;;;;0.00;0.00;;;;;;;;4970726;28;8836;-74
2022/06/07 15:03:19;;;;;;;;;0.00;0.00;;;;;;;;4975983;28;9663;-74
2022/06/07 15:05:52;;;;;;;;;0.00;0.00;;;;;;;;4966259;28;9610;-74
2022/06/07 15:08:20;;;;;;;;;0.00;0.00;;;;;;;;4971599;28;8907;-74
2022/06/07 15:10:51;;;;;;;;;0.00;0.00;;;;;;;;4967766;28;8890;-73
2022/06/07 15:13:24;;;;;;;;;0.00;0.00;;;;;;;;4967274;28;9020;-74
2022/06/07 15:15:52;;;;;;;;;0.00;0.00;;;;;;;;4964586;28;8949;-74
2022/06/07 15:18:20;;;;;;;;;0.00;0.00;;;;;;;;4964875;28;8875;-75
2022/06/07 15:20:48;;;;;;;;;0.00;0.00;;;;;;;;4967401;28;8855;-75
2022/06/07 15:23:19;;;;;;;;;0.20;0.00;;;;;;;;4971731;28;8886;-74
2022/06/07 15:25:48;;;;;;;;;0.00;0.00;;;;;;;;4971642;28;9327;-75
2022/06/07 15:28:16;;;;;;;;;0.00;0.00;;;;;;;;4967805;28;8863;-74
2022/06/07 15:30:59;;;;;;;;;0.00;0.00;;;;;;;;5083689;27;9486;-75
2022/06/07 15:33:28;;;;;;;;;0.00;0.00;;;;;;;;5042278;28;8836;-74
2022/06/07 15:35:56;;;;;;;;;0.80;0.00;;;;;;;;5055380;28;8861;-75
2022/06/07 15:38:24;;;;;;;;;0.00;0.00;;;;;;;;5051378;28;8873;-75
2022/06/07 15:40:51;;;;;;;;;0.00;0.00;;;;;;;;5053180;28;8868;-75
2022/06/07 15:43:17;;;;;;;;;0.00;0.00;;;;;;;;5054036;28;8861;-75
2022/06/07 15:45:46;;;;;;;;;0.40;0.00;;;;;;;;5050301;28;8915;-75